Time;durP1;ratioP1;P1;durP2;ratioP2;P2;SDS_P1;SDS_P2;PMS_P1;PMS_P2;Temp;Humidity;BMP_temperature;BMP_pressure;BME280_temperature;BME280_humidity;BME280_pressure;Samples;Min_cycle;Max_cycle;Signal;HPM_P1;HPM_P2
2024/01/06 00:00:13;;;;;;;11.20;7.87;;;;;;;11.55;57.45;99582.97;672155;29;1228;-93
2024/01/06 00:00:33;;;;;;;11.80;7.57;;;;;;;11.48;57.34;99577.72;670523;29;1212;-92
2024/01/06 00:00:54;;;;;;;11.60;7.60;;;;;;;11.51;57.20;99584.69;672189;29;1245;-92
2024/01/06 00:01:17;;;;;;;11.57;7.50;;;;;;;11.51;57.17;99588.16;669700;29;1146;-92
2024/01/06 00:01:38;;;;;;;9.43;6.95;;;;;;;11.55;57.23;99589.06;669481;29;1301;-92
2024/01/06 00:01:58;;;;;;;9.38;6.90;;;;;;;11.56;57.43;99585.56;667359;29;1176;-92
2024/01/06 00:02:19;;;;;;;8.93;6.67;;;;;;;11.64;57.46;99603.91;667169;29;1231;-92
2024/01/06 00:02:39;;;;;;;10.15;6.75;;;;;;;11.52;57.41;99583.84;673840;29;1100;-92
2024/01/06 00:03:00;;;;;;;9.27;6.43;;;;;;;11.51;57.33;99597.75;674826;29;1064;-92
2024/01/06 00:03:20;;;;;;;9.57;6.60;;;;;;;11.48;57.48;99589.88;672349;29;1199;-92
2024/01/06 00:03:41;;;;;;;9.10;6.85;;;;;;;11.54;57.36;99603.00;677355;29;1278;-92
2024/01/06 00:04:02;;;;;;;9.97;7.07;;;;;;;11.49;57.21;99589.06;669791;29;1229;-92
2024/01/06 00:04:22;;;;;;;10.63;7.68;;;;;;;11.48;57.47;99587.28;674327;29;1301;-92
2024/01/06 00:04:43;;;;;;;10.47;7.60;;;;;;;11.55;57.35;99599.50;674672;29;1214;-93
2024/01/06 00:05:05;;;;;;;11.05;7.85;;;;;;;11.52;57.42;99595.16;672222;29;1263;-92
2024/01/06 00:05:25;;;;;;;10.88;7.68;;;;;;;11.49;57.48;99594.28;669684;29;1338;-92
2024/01/06 00:05:46;;;;;;;11.70;7.78;;;;;;;11.48;57.46;99592.50;672241;29;1137;-91
2024/01/06 00:06:06;;;;;;;10.83;7.63;;;;;;;11.51;57.42;99596.00;672181;29;1447;-92
2024/01/06 00:06:27;;;;;;;10.50;7.47;;;;;;;11.54;57.33;99597.75;669842;29;1293;-92
2024/01/06 00:06:48;;;;;;;11.05;7.82;;;;;;;11.51;57.41;99590.78;672372;29;1253;-92
2024/01/06 00:07:09;;;;;;;11.47;7.90;;;;;;;11.61;57.59;99614.38;672224;29;1267;-93
2024/01/06 00:07:29;;;;;;;12.35;7.95;;;;;;;11.48;57.57;99602.94;667487;29;1334;-92
2024/01/06 00:07:50;;;;;;;10.97;7.40;;;;;;;11.44;57.64;99596.84;672211;29;1199;-92
2024/01/06 00:08:11;;;;;;;11.73;7.50;;;;;;;11.45;57.70;99602.94;674934;29;1171;-92
2024/01/06 00:08:31;;;;;;;13.27;8.18;;;;;;;11.53;57.75;99606.47;669430;29;1194;-92
2024/01/06 00:08:54;;;;;;;12.77;8.43;;;;;;;11.47;57.39;99591.66;671983;29;1285;-92
2024/01/06 00:09:14;;;;;;;12.10;8.00;;;;;;;11.51;57.32;99596.00;667252;29;1341;-91
2024/01/06 00:09:35;;;;;;;10.47;7.70;;;;;;;11.56;57.43;99595.16;672127;29;1126;-92
2024/01/06 00:09:55;;;;;;;11.50;7.95;;;;;;;11.58;57.56;99606.50;669672;29;1214;-92
2024/01/06 00:10:16;;;;;;;12.80;8.15;;;;;;;11.67;57.38;99608.31;672300;29;1140;-93
2024/01/06 00:10:37;;;;;;;12.70;8.40;;;;;;;11.67;57.18;99609.19;672239;29;1187;-92
2024/01/06 00:10:58;;;;;;;12.88;8.45;;;;;;;11.63;57.45;99608.25;669729;29;1153;-92
2024/01/06 00:11:18;;;;;;;11.67;8.10;;;;;;;11.69;57.27;99617.94;669513;29;1259;-92
2024/01/06 00:11:39;;;;;;;11.50;7.63;;;;;;;11.65;57.24;99616.16;669640;29;1254;-92
2024/01/06 00:12:01;;;;;;;10.17;7.40;;;;;;;11.71;57.21;99623.13;669594;29;1132;-93
2024/01/06 00:12:22;;;;;;;10.60;7.35;;;;;;;11.62;57.27;99605.66;674774;29;1209;-91
2024/01/06 00:12:42;;;;;;;9.60;6.87;;;;;;;11.64;57.31;99611.75;674354;29;865;-92
2024/01/06 00:13:03;;;;;;;9.97;6.90;;;;;;;11.64;57.26;99609.16;672262;29;1136;-92
2024/01/06 00:13:24;;;;;;;10.40;7.57;;;;;;;11.65;57.32;99613.53;674369;29;1548;-92
2024/01/06 00:13:44;;;;;;;12.38;8.00;;;;;;;11.66;57.25;99612.66;669261;29;1178;-93
2024/01/06 00:14:05;;;;;;;11.97;7.80;;;;;;;11.67;57.33;99616.16;666999;29;1202;-92
2024/01/06 00:14:25;;;;;;;11.98;7.45;;;;;;;11.63;56.88;99612.63;666781;29;1372;-92
2024/01/06 00:14:46;;;;;;;11.83;7.80;;;;;;;11.72;57.31;99631.00;672124;29;1262;-92
2024/01/06 00:15:07;;;;;;;11.98;8.13;;;;;;;11.65;57.31;99621.38;677111;29;1214;-92
2024/01/06 00:15:27;;;;;;;14.10;8.90;;;;;;;11.60;57.18;99617.81;672028;29;1218;-92
2024/01/06 00:15:48;;;;;;;16.08;9.32;;;;;;;11.56;57.26;99616.06;669652;29;1197;-92
2024/01/06 00:16:08;;;;;;;16.57;9.30;;;;;;;11.54;57.38;99607.38;672286;29;1151;-92
2024/01/06 00:16:29;;;;;;;16.08;8.60;;;;;;;11.56;57.15;99613.47;672447;29;1199;-93
2024/01/06 00:16:50;;;;;;;14.23;8.10;;;;;;;11.54;57.27;99613.44;669840;29;1200;-92
2024/01/06 00:17:11;;;;;;;15.13;8.10;;;;;;;11.49;57.27;99610.81;674670;29;1242;-92
2024/01/06 00:17:32;;;;;;;14.55;8.38;;;;;;;11.57;57.38;99617.81;673939;29;1240;-92
2024/01/06 00:17:52;;;;;;;14.32;8.10;;;;;;;11.59;57.36;99618.69;669702;29;1243;-92
2024/01/06 00:18:13;;;;;;;11.87;7.70;;;;;;;11.57;57.41;99610.88;673733;29;1231;-92
2024/01/06 00:18:34;;;;;;;10.52;7.20;;;;;;;11.62;57.67;99616.13;674478;29;1188;-92
2024/01/06 00:18:55;;;;;;;9.68;6.97;;;;;;;11.70;57.33;99622.28;667236;29;1587;-92
2024/01/06 00:19:17;;;;;;;10.20;7.20;;;;;;;11.73;57.30;99622.28;674793;29;1162;-92
2024/01/06 00:19:38;;;;;;;9.48;7.43;;;;;;;11.67;57.19;99624.00;672096;29;1923;-92
2024/01/06 00:20:00;;;;;;;9.50;7.53;;;;;;;11.72;57.19;99630.09;672280;29;1085;-92
2024/01/06 00:20:20;;;;;;;10.32;7.40;;;;;;;11.71;57.37;99618.81;672264;29;1203;-92
2024/01/06 00:20:41;;;;;;;11.83;7.47;;;;;;;11.62;57.08;99611.75;669649;29;1206;-92
2024/01/06 00:21:01;;;;;;;13.40;8.02;;;;;;;11.73;57.08;99635.34;672449;29;1250;-92
2024/01/06 00:21:22;;;;;;;13.70;8.38;;;;;;;11.74;56.99;99631.88;674873;29;983;-93
2024/01/06 00:21:42;;;;;;;12.13;8.23;;;;;;;11.61;57.23;99610.00;672058;29;1233;-92
2024/01/06 00:22:03;;;;;;;11.88;8.20;;;;;;;11.70;57.14;99624.91;667361;29;1153;-92
2024/01/06 00:22:25;;;;;;;11.13;7.80;;;;;;;11.71;57.14;99623.13;670029;29;1506;-93
2024/01/06 00:22:46;;;;;;;11.95;7.88;;;;;;;11.67;57.13;99622.25;671968;29;1486;-92
2024/01/06 00:23:28;;;;;;;11.80;7.90;;;;;;;11.71;57.13;99631.88;674208;29;1253;-91
2024/01/06 00:23:48;;;;;;;11.55;8.00;;;;;;;11.70;57.22;99624.91;672094;29;1099;-92
2024/01/06 00:24:09;;;;;;;11.80;8.23;;;;;;;11.69;57.36;99617.03;672399;29;1290;-92
2024/01/06 00:24:29;;;;;;;11.65;8.55;;;;;;;11.74;57.25;99625.78;672147;29;1176;-93
2024/01/06 00:24:50;;;;;;;13.57;8.63;;;;;;;11.69;57.25;99620.53;669647;29;1144;-92
2024/01/06 00:25:11;;;;;;;14.50;8.63;;;;;;;11.63;57.37;99623.09;668141;29;1241;-92
2024/01/06 00:25:31;;;;;;;14.70;8.45;;;;;;;11.56;57.30;99603.00;673979;29;1184;-93
2024/01/06 00:25:52;;;;;;;12.60;8.30;;;;;;;11.58;57.31;99619.56;675013;29;1285;-93
2024/01/06 00:26:12;;;;;;;10.82;7.88;;;;;;;11.69;57.38;99627.50;672190;29;1179;-91
2024/01/06 00:26:33;;;;;;;10.73;7.90;;;;;;;11.63;57.21;99628.31;674704;29;1176;-92
2024/01/06 00:26:53;;;;;;;11.63;7.90;;;;;;;11.63;57.20;99623.94;669912;29;1086;-93
2024/01/06 00:27:16;;;;;;;13.52;8.40;;;;;;;11.67;57.20;99624.00;669738;29;869;-93
2024/01/06 00:27:36;;;;;;;13.55;8.20;;;;;;;11.72;57.47;99631.00;672204;29;1294;-91
2024/01/06 00:27:57;;;;;;;12.02;7.88;;;;;;;11.65;57.56;99621.38;669580;29;1267;-92
2024/01/06 00:28:18;;;;;;;10.23;7.50;;;;;;;11.69;57.00;99628.38;672264;29;1318;-93
2024/01/06 00:28:41;;;;;;;11.70;7.60;;;;;;;11.70;57.32;99629.25;673124;29;1261;-92
2024/01/06 00:29:01;;;;;;;12.85;8.23;;;;;;;11.69;57.53;99625.75;669769;29;1370;-92
2024/01/06 00:29:22;;;;;;;13.25;8.07;;;;;;;11.67;57.30;99624.88;672435;29;1355;-93
2024/01/06 00:29:43;;;;;;;12.95;8.68;;;;;;;11.62;57.25;99616.13;666769;29;1246;-92
2024/01/06 00:30:04;;;;;;;14.15;8.70;;;;;;;11.63;57.42;99623.94;669883;29;1195;-92
2024/01/06 00:30:24;;;;;;;12.43;8.50;;;;;;;11.65;57.21;99621.38;671618;29;1336;-93
2024/01/06 00:30:45;;;;;;;12.63;8.23;;;;;;;11.57;57.25;99623.03;674347;29;1141;-92
2024/01/06 00:31:06;;;;;;;13.18;8.30;;;;;;;11.62;57.40;99622.19;672392;29;1084;-92
2024/01/06 00:31:27;;;;;;;15.98;9.00;;;;;;;11.63;57.71;99617.84;674637;29;1300;-92
2024/01/06 00:31:47;;;;;;;15.27;8.93;;;;;;;11.60;57.37;99617.81;669761;29;1256;-92
2024/01/06 00:32:08;;;;;;;12.93;8.50;;;;;;;11.64;57.31;99622.22;674827;29;1197;-92
2024/01/06 00:32:29;;;;;;;11.43;8.30;;;;;;;11.60;57.61;99617.81;674491;29;1155;-92
2024/01/06 00:32:49;;;;;;;12.02;8.70;;;;;;;11.61;57.30;99619.59;677314;29;1262;-92
2024/01/06 00:33:10;;;;;;;13.45;8.65;;;;;;;11.53;57.66;99619.53;676822;29;1316;-92
2024/01/06 00:33:31;;;;;;;12.97;8.00;;;;;;;11.60;57.67;99621.31;679220;29;1228;-92
2024/01/06 00:33:51;;;;;;;13.05;7.70;;;;;;;11.62;57.38;99629.19;677599;29;906;-92
2024/01/06 00:34:12;;;;;;;13.80;7.90;;;;;;;11.61;57.59;99619.59;674838;29;1139;-92
2024/01/06 00:34:32;;;;;;;12.93;7.80;;;;;;;11.63;57.64;99629.16;671557;29;1358;-92
2024/01/06 00:34:53;;;;;;;13.00;8.40;;;;;;;11.58;57.54;99616.94;669638;29;1192;-92
2024/01/06 00:35:14;;;;;;;14.45;8.43;;;;;;;11.59;57.40;99621.31;667062;29;1315;-92
2024/01/06 00:35:35;;;;;;;15.10;8.48;;;;;;;11.68;57.33;99634.44;671083;29;1198;-92
2024/01/06 00:35:55;;;;;;;16.00;8.43;;;;;;;11.59;57.37;99622.19;672940;29;1297;-92
2024/01/06 00:36:16;;;;;;;18.10;9.10;;;;;;;11.63;57.48;99623.94;669464;29;1273;-92
2024/01/06 00:36:36;;;;;;;20.02;9.63;;;;;;;11.60;57.60;99610.88;670761;29;1015;-92
2024/01/06 00:36:57;;;;;;;18.23;9.13;;;;;;;11.60;57.43;99616.09;672357;29;1355;-92
2024/01/06 00:37:18;;;;;;;13.15;8.60;;;;;;;11.72;57.28;99633.59;673742;29;1299;-92
2024/01/06 00:37:38;;;;;;;11.60;8.02;;;;;;;11.70;57.67;99624.00;668345;29;1283;-92
2024/01/06 00:38:00;;;;;;;12.13;8.20;;;;;;;11.69;57.25;99628.38;669757;29;1334;-92
2024/01/06 00:38:20;;;;;;;11.40;8.05;;;;;;;11.71;57.55;99629.25;669700;29;1352;-92
2024/01/06 00:38:41;;;;;;;12.98;8.23;;;;;;;11.71;57.26;99631.88;672203;29;1412;-92
2024/01/06 00:39:03;;;;;;;11.40;7.73;;;;;;;11.69;57.57;99620.53;672218;29;1139;-93
2024/01/06 00:39:24;;;;;;;13.40;8.90;;;;;;;11.68;57.49;99620.53;672035;29;968;-92
2024/01/06 00:39:44;;;;;;;12.10;9.00;;;;;;;11.73;57.47;99624.91;671711;29;1980;-92
2024/01/06 00:40:06;;;;;;;13.10;9.23;;;;;;;11.66;57.37;99625.72;669591;29;1221;-92
2024/01/06 00:40:26;;;;;;;11.40;8.30;;;;;;;11.60;57.45;99617.81;672187;29;1485;-92
2024/01/06 00:40:47;;;;;;;11.75;8.30;;;;;;;11.65;57.44;99631.81;669607;29;1340;-92
2024/01/06 00:41:07;;;;;;;12.38;8.00;;;;;;;11.58;57.24;99614.34;672187;29;1166;-92
2024/01/06 00:41:28;;;;;;;13.77;8.30;;;;;;;11.69;57.21;99636.22;667194;29;1365;-93
2024/01/06 00:41:48;;;;;;;13.75;8.20;;;;;;;11.67;57.15;99627.47;674932;29;1234;-92
2024/01/06 00:42:09;;;;;;;12.10;8.13;;;;;;;11.64;57.48;99620.50;672015;29;1198;-92
2024/01/06 00:42:30;;;;;;;11.32;8.30;;;;;;;11.64;57.31;99616.97;669641;29;1354;-91
2024/01/06 00:42:50;;;;;;;13.18;8.70;;;;;;;11.69;57.29;99623.16;674728;29;1378;-93
2024/01/06 00:43:11;;;;;;;13.50;9.10;;;;;;;11.62;57.28;99618.72;672356;29;1093;-93
2024/01/06 00:43:31;;;;;;;13.52;8.68;;;;;;;11.64;57.54;99627.44;672627;29;1334;-92
2024/01/06 00:43:52;;;;;;;12.03;8.17;;;;;;;11.62;57.14;99621.34;672261;29;1226;-92
2024/01/06 00:44:12;;;;;;;11.07;7.75;;;;;;;11.64;57.24;99625.72;672208;29;1302;-92
2024/01/06 00:44:35;;;;;;;12.97;8.00;;;;;;;11.58;57.50;99624.78;671721;29;1247;-93
2024/01/06 00:44:56;;;;;;;13.73;8.38;;;;;;;11.57;57.52;99634.38;672331;29;1358;-93
2024/01/06 00:45:17;;;;;;;14.73;8.33;;;;;;;11.59;57.45;99634.38;672102;29;1119;-92
2024/01/06 00:45:38;;;;;;;14.48;8.70;;;;;;;11.54;57.59;99629.13;673626;29;1249;-93
2024/01/06 00:45:59;;;;;;;16.60;9.37;;;;;;;11.57;57.39;99636.09;674616;29;1218;-92
2024/01/06 00:46:19;;;;;;;16.35;9.93;;;;;;;11.57;57.61;99641.34;672362;29;1152;-92
2024/01/06 00:46:40;;;;;;;13.13;9.20;;;;;;;11.57;57.59;99641.34;669734;29;1073;-92
2024/01/06 00:47:01;;;;;;;11.07;8.00;;;;;;;11.62;57.42;99643.09;669750;29;1165;-92
2024/01/06 00:47:24;;;;;;;9.43;7.20;;;;;;;11.51;57.38;99624.75;672133;29;1356;-93
2024/01/06 00:47:44;;;;;;;10.32;8.00;;;;;;;11.50;57.51;99637.81;672309;29;1305;-92
2024/01/06 00:48:05;;;;;;;11.52;8.25;;;;;;;11.52;57.66;99638.69;672353;29;1115;-93
2024/01/06 00:48:26;;;;;;;13.18;8.23;;;;;;;11.54;57.60;99650.03;670059;29;1639;-92
2024/01/06 00:48:46;;;;;;;13.85;8.00;;;;;;;11.49;57.47;99631.72;673738;29;1408;-93
2024/01/06 00:49:07;;;;;;;13.83;8.20;;;;;;;11.51;57.66;99631.72;675061;29;904;-93
2024/01/06 00:49:27;;;;;;;12.73;7.85;;;;;;;11.53;57.60;99635.22;672266;29;1142;-92
2024/01/06 00:49:48;;;;;;;12.80;7.47;;;;;;;11.60;57.72;99643.94;669652;29;1230;-92
2024/01/06 00:50:09;;;;;;;12.97;7.90;;;;;;;11.52;57.76;99631.75;674734;29;1342;-92
2024/01/06 00:50:29;;;;;;;12.90;8.23;;;;;;;11.53;57.69;99632.59;672105;29;1040;-92
2024/01/06 00:50:50;;;;;;;12.20;8.33;;;;;;;11.57;57.33;99634.38;673384;29;1280;-93
2024/01/06 00:51:10;;;;;;;13.00;8.30;;;;;;;11.63;57.71;99644.84;674498;29;1396;-92
2024/01/06 00:51:31;;;;;;;12.80;8.63;;;;;;;11.54;57.58;99633.50;669658;29;1108;-93
2024/01/06 00:51:51;;;;;;;14.60;8.97;;;;;;;11.59;57.35;99636.97;669694;29;1215;-92
2024/01/06 00:52:12;;;;;;;14.80;8.65;;;;;;;11.61;57.44;99637.88;671422;29;1383;-92
2024/01/06 00:52:32;;;;;;;14.23;8.25;;;;;;;11.58;57.71;99643.06;675003;29;1582;-92
2024/01/06 00:52:53;;;;;;;13.40;8.03;;;;;;;11.58;57.27;99640.47;669646;29;1246;-93
2024/01/06 00:53:14;;;;;;;12.88;8.48;;;;;;;11.58;57.44;99645.69;669733;29;1227;-93
2024/01/06 00:53:34;;;;;;;12.63;7.97;;;;;;;11.55;57.35;99636.09;669752;29;1148;-93
2024/01/06 00:53:55;;;;;;;12.30;8.30;;;;;;;11.51;57.45;99623.88;669716;29;1160;-93
2024/01/06 00:54:16;;;;;;;11.18;7.97;;;;;;;11.55;57.32;99635.22;667057;29;1359;-92
2024/01/06 00:54:36;;;;;;;14.82;8.73;;;;;;;11.61;57.43;99643.13;670582;29;1282;-92
2024/01/06 00:54:57;;;;;;;14.77;8.37;;;;;;;11.55;57.53;99632.63;674760;29;1304;-92
2024/01/06 00:55:21;;;;;;;14.80;8.25;;;;;;;11.61;57.50;99643.13;671941;29;1359;-92
2024/01/06 00:55:42;;;;;;;11.98;7.82;;;;;;;11.57;57.50;99637.00;669640;29;1294;-92
2024/01/06 00:56:03;;;;;;;11.53;7.83;;;;;;;11.57;57.62;99638.72;669555;29;1169;-93
2024/01/06 00:56:24;;;;;;;12.60;8.38;;;;;;;11.55;57.71;99641.31;671752;29;1238;-93
2024/01/06 00:56:44;;;;;;;12.77;8.60;;;;;;;11.59;57.70;99643.09;671768;29;1194;-92
2024/01/06 00:57:05;;;;;;;14.27;9.23;;;;;;;11.55;57.82;99646.53;672354;29;1231;-92
2024/01/06 00:57:25;;;;;;;13.10;8.90;;;;;;;11.49;57.81;99636.06;672219;29;1084;-92
2024/01/06 00:57:46;;;;;;;12.93;8.82;;;;;;;11.56;57.72;99645.66;672246;29;1147;-92
2024/01/06 00:58:08;;;;;;;13.00;8.67;;;;;;;11.55;57.50;99646.53;669687;29;1225;-93
2024/01/06 00:58:29;;;;;;;14.18;9.38;;;;;;;11.62;57.70;99647.47;672303;29;980;-92
2024/01/06 00:58:49;;;;;;;13.37;9.20;;;;;;;11.64;57.43;99650.94;672454;29;864;-92
2024/01/06 00:59:10;;;;;;;13.38;9.27;;;;;;;11.60;57.67;99650.06;674552;29;1790;-92
2024/01/06 00:59:30;;;;;;;14.10;9.50;;;;;;;11.58;57.49;99651.81;676855;29;1708;-93
2024/01/06 00:59:51;;;;;;;15.57;10.00;;;;;;;11.56;57.44;99642.19;672281;29;1980;-92
2024/01/06 01:00:12;;;;;;;16.70;10.13;;;;;;;11.57;57.62;99642.22;674666;29;1145;-92
2024/01/06 01:00:32;;;;;;;15.32;9.77;;;;;;;11.58;57.88;99641.34;672049;29;1352;-92
2024/01/06 01:00:53;;;;;;;15.35;9.60;;;;;;;11.57;57.76;99647.44;669566;29;1235;-92
2024/01/06 01:01:14;;;;;;;14.50;9.30;;;;;;;11.63;57.57;99657.91;667054;29;1219;-92
2024/01/06 01:01:34;;;;;;;15.57;9.23;;;;;;;11.59;57.54;99647.44;669684;29;1133;-92
2024/01/06 01:01:55;;;;;;;15.75;9.27;;;;;;;11.58;57.55;99637.84;670981;29;1115;-92
2024/01/06 01:02:16;;;;;;;16.37;9.30;;;;;;;11.58;57.70;99640.47;674838;29;1171;-92
2024/01/06 01:02:37;;;;;;;17.27;9.55;;;;;;;11.60;57.48;99649.19;669879;29;1293;-92
2024/01/06 01:02:58;;;;;;;15.02;9.25;;;;;;;11.60;57.38;99643.94;674787;29;1341;-92
2024/01/06 01:03:19;;;;;;;16.67;9.52;;;;;;;11.55;57.49;99635.22;674721;29;1154;-92
2024/01/06 01:03:39;;;;;;;15.60;9.33;;;;;;;11.64;57.46;99656.19;669823;29;1413;-92
2024/01/06 01:04:00;;;;;;;18.02;9.43;;;;;;;11.58;57.42;99646.56;670337;29;1284;-93
2024/01/06 01:04:21;;;;;;;17.37;9.40;;;;;;;11.58;57.61;99645.69;670052;29;1281;-93
2024/01/06 01:04:41;;;;;;;15.77;9.00;;;;;;;11.59;57.41;99655.28;670112;29;1256;-93
2024/01/06 01:05:02;;;;;;;12.80;9.00;;;;;;;11.63;57.61;99655.28;668167;29;1202;-92
2024/01/06 01:05:23;;;;;;;15.60;9.35;;;;;;;11.59;57.63;99653.53;672844;29;1242;-93
2024/01/06 01:05:43;;;;;;;15.30;9.57;;;;;;;11.60;57.65;99651.78;670009;29;1290;-92
2024/01/06 01:06:04;;;;;;;16.03;9.80;;;;;;;11.64;57.56;99658.78;672836;29;1123;-93
2024/01/06 01:06:24;;;;;;;13.73;9.45;;;;;;;11.61;57.64;99643.97;672557;29;1260;-92
2024/01/06 01:06:45;;;;;;;15.13;9.57;;;;;;;11.64;57.63;99656.19;672584;29;1159;-92
2024/01/06 01:07:05;;;;;;;14.43;8.82;;;;;;;11.63;57.65;99651.81;670261;29;1152;-92
2024/01/06 01:07:27;;;;;;;14.60;9.15;;;;;;;11.52;57.74;99644.81;672783;29;1255;-92
2024/01/06 01:07:47;;;;;;;14.65;8.73;;;;;;;11.57;57.66;99649.16;675155;29;1263;-93
2024/01/06 01:08:08;;;;;;;13.90;8.50;;;;;;;11.62;57.53;99652.69;672787;29;1236;-92
2024/01/06 01:08:28;;;;;;;13.70;8.50;;;;;;;11.60;57.62;99644.84;675004;29;1349;-92
2024/01/06 01:09:04;;;;;;;16.05;9.27;;;;;;;11.64;57.49;99653.56;670322;29;1291;-93
2024/01/06 01:09:25;;;;;;;18.48;9.25;;;;;;;11.65;57.54;99651.00;672749;29;1270;-92
2024/01/06 01:09:45;;;;;;;17.80;9.27;;;;;;;11.59;57.71;99650.94;675190;29;1301;-93
2024/01/06 01:10:06;;;;;;;15.95;9.32;;;;;;;11.59;57.70;99636.97;668275;29;1171;-92
2024/01/06 01:10:26;;;;;;;14.77;9.07;;;;;;;11.65;57.53;99653.63;670297;29;1162;-92
2024/01/06 01:10:47;;;;;;;13.67;9.03;;;;;;;11.58;57.49;99640.47;672620;29;1182;-93
2024/01/06 01:11:08;;;;;;;14.57;9.00;;;;;;;11.58;57.61;99640.47;670305;29;1144;-92
2024/01/06 01:11:28;;;;;;;15.30;8.88;;;;;;;11.55;57.69;99641.31;667553;29;1237;-93
2024/01/06 01:11:49;;;;;;;17.60;9.33;;;;;;;11.61;57.51;99648.34;675276;29;1218;-92
2024/01/06 01:12:10;;;;;;;17.83;9.37;;;;;;;11.64;57.58;99650.94;678001;29;1138;-92
2024/01/06 01:12:30;;;;;;;17.98;9.65;;;;;;;11.63;57.49;99657.06;670500;29;1251;-92
2024/01/06 01:12:51;;;;;;;16.88;9.48;;;;;;;11.62;57.67;99652.69;675352;29;1029;-93
2024/01/06 01:13:12;;;;;;;16.63;9.60;;;;;;;11.60;57.57;99659.63;672876;29;1200;-92
2024/01/06 01:13:32;;;;;;;16.42;9.35;;;;;;;11.59;57.77;99647.44;670888;29;1204;-92
2024/01/06 01:13:54;;;;;;;15.23;8.77;;;;;;;11.52;57.33;99652.66;675592;29;988;-93
2024/01/06 01:14:15;;;;;;;15.98;8.90;;;;;;;11.60;57.63;99660.50;670266;29;1218;-92
2024/01/06 01:14:35;;;;;;;14.68;8.70;;;;;;;11.58;57.78;99651.81;669072;29;1233;-93
2024/01/06 01:14:56;;;;;;;15.75;8.55;;;;;;;11.63;57.70;99654.44;672904;29;1254;-93
2024/01/06 01:15:16;;;;;;;13.25;8.20;;;;;;;11.67;57.80;99660.59;670242;29;1186;-93
2024/01/06 01:15:37;;;;;;;16.10;8.83;;;;;;;11.65;57.64;99650.13;676441;29;1213;-92
2024/01/06 01:15:58;;;;;;;15.07;8.93;;;;;;;11.65;57.47;99647.50;672790;29;1133;-93
2024/01/06 01:16:18;;;;;;;14.73;8.77;;;;;;;11.68;57.77;99657.09;672767;29;1358;-92
2024/01/06 01:16:39;;;;;;;13.85;8.82;;;;;;;11.63;57.75;99650.06;668816;29;1270;-93
2024/01/06 01:16:59;;;;;;;13.75;8.82;;;;;;;11.64;57.62;99659.69;675315;29;1201;-93
2024/01/06 01:17:20;;;;;;;14.20;8.90;;;;;;;11.64;57.77;99664.91;675448;29;1245;-93
2024/01/06 01:17:41;;;;;;;14.00;8.80;;;;;;;11.62;57.38;99657.91;670017;29;1305;-92
2024/01/06 01:18:01;;;;;;;14.38;9.25;;;;;;;11.62;57.62;99658.78;670131;29;1157;-93
2024/01/06 01:18:22;;;;;;;15.10;9.40;;;;;;;11.64;57.74;99656.19;669938;29;1200;-92
2024/01/06 01:18:43;;;;;;;14.67;9.10;;;;;;;11.59;57.70;99655.28;674610;29;1155;-93
2024/01/06 01:19:03;;;;;;;14.57;9.18;;;;;;;11.61;57.70;99656.19;677805;29;1201;-92
2024/01/06 01:19:24;;;;;;;13.80;9.00;;;;;;;11.64;57.78;99662.28;670138;29;1127;-92
2024/01/06 01:19:45;;;;;;;13.73;8.97;;;;;;;11.57;57.59;99650.06;672531;29;1903;-92
2024/01/06 01:20:06;;;;;;;12.63;8.30;;;;;;;11.63;57.58;99664.88;675385;29;1318;-92
2024/01/06 01:20:27;;;;;;;11.50;8.52;;;;;;;11.60;57.68;99651.78;670054;29;1440;-93
2024/01/06 01:20:47;;;;;;;12.10;8.70;;;;;;;11.65;57.45;99664.06;672642;29;1241;-93
2024/01/06 01:21:08;;;;;;;13.63;9.38;;;;;;;11.60;57.90;99659.63;672865;29;1195;-92
2024/01/06 01:21:29;;;;;;;14.20;9.65;;;;;;;11.55;57.68;99645.69;675232;29;1302;-93
2024/01/06 01:21:50;;;;;;;14.65;9.90;;;;;;;11.59;57.72;99650.03;675418;29;1164;-93
2024/01/06 01:22:10;;;;;;;13.77;9.57;;;;;;;11.62;58.05;99665.75;672763;29;1180;-91
2024/01/06 01:22:31;;;;;;;13.23;8.90;;;;;;;11.60;57.64;99659.63;672504;29;1219;-92
2024/01/06 01:22:52;;;;;;;11.10;8.02;;;;;;;11.59;57.57;99652.66;675317;29;1521;-92
2024/01/06 01:23:12;;;;;;;11.68;8.40;;;;;;;11.55;57.55;99646.53;675292;29;1205;-92
2024/01/06 01:23:33;;;;;;;13.00;8.73;;;;;;;11.59;57.67;99656.16;667884;29;1202;-93
2024/01/06 01:23:53;;;;;;;16.10;9.88;;;;;;;11.61;57.64;99656.19;670246;29;1271;-92
2024/01/06 01:24:14;;;;;;;16.45;9.65;;;;;;;11.58;57.39;99659.63;675242;29;1191;-92
2024/01/06 01:24:34;;;;;;;16.57;10.17;;;;;;;11.59;57.76;99661.38;677356;29;1206;-92
2024/01/06 01:24:55;;;;;;;14.63;9.40;;;;;;;11.56;57.75;99655.25;677909;29;1148;-91
2024/01/06 01:25:16;;;;;;;15.17;9.63;;;;;;;11.57;57.72;99667.47;672626;29;1280;-92
2024/01/06 01:25:36;;;;;;;16.23;9.30;;;;;;;11.58;57.85;99659.63;675158;29;1188;-92
2024/01/06 01:25:57;;;;;;;15.68;9.57;;;;;;;11.63;57.61;99662.28;672731;29;1160;-92
2024/01/06 01:26:17;;;;;;;15.00;9.23;;;;;;;11.55;57.58;99653.53;670052;29;1431;-92
2024/01/06 01:26:38;;;;;;;13.55;8.88;;;;;;;11.58;57.81;99656.13;667453;29;1227;-92
2024/01/06 01:26:58;;;;;;;15.33;9.30;;;;;;;11.63;57.68;99670.13;672841;29;1246;-92
2024/01/06 01:27:19;;;;;;;16.35;9.43;;;;;;;11.63;57.68;99659.66;675266;29;1238;-92
2024/01/06 01:27:39;;;;;;;16.95;9.88;;;;;;;11.62;57.68;99660.53;673795;29;1209;-93
2024/01/06 01:28:00;;;;;;;15.03;9.60;;;;;;;11.59;57.61;99657.88;670147;29;1116;-91
2024/01/06 01:28:21;;;;;;;13.60;9.52;;;;;;;11.58;57.73;99658.75;670159;29;991;-93
2024/01/06 01:28:42;;;;;;;13.45;9.43;;;;;;;11.56;57.68;99657.88;668872;29;1197;-92
2024/01/06 01:29:03;;;;;;;14.32;9.30;;;;;;;11.52;57.63;99651.75;670065;29;991;-92
2024/01/06 01:29:23;;;;;;;13.93;9.13;;;;;;;11.54;57.79;99657.00;674447;29;1281;-93
2024/01/06 01:29:44;;;;;;;14.70;9.07;;;;;;;11.51;57.88;99650.88;672536;29;1087;-92
2024/01/06 01:30:05;;;;;;;14.35;8.98;;;;;;;11.58;57.81;99661.38;675239;29;1095;-92
2024/01/06 01:30:26;;;;;;;14.85;8.93;;;;;;;11.59;57.61;99657.88;669751;29;1105;-92
2024/01/06 01:30:46;;;;;;;13.73;8.85;;;;;;;11.59;57.71;99657.88;672466;29;1240;-92
2024/01/06 01:31:07;;;;;;;15.00;8.97;;;;;;;11.59;57.64;99653.53;667685;29;1077;-92
2024/01/06 01:31:28;;;;;;;14.60;8.93;;;;;;;11.62;57.62;99665.75;670177;29;1191;-92
2024/01/06 01:31:49;;;;;;;14.87;9.53;;;;;;;11.55;57.63;99654.38;672520;29;1177;-92
2024/01/06 01:32:09;;;;;;;13.18;9.30;;;;;;;11.61;57.87;99661.41;670067;29;1148;-93
2024/01/06 01:32:30;;;;;;;14.23;9.63;;;;;;;11.61;57.73;99664.00;669743;29;1269;-91
2024/01/06 01:32:50;;;;;;;12.97;8.70;;;;;;;11.69;57.58;99671.91;672657;29;1301;-92
2024/01/06 01:33:11;;;;;;;13.65;8.68;;;;;;;11.61;57.45;99658.78;675004;29;1105;-92
2024/01/06 01:33:32;;;;;;;14.48;8.63;;;;;;;11.62;57.81;99657.91;672519;29;1554;-92
2024/01/06 01:33:52;;;;;;;14.50;8.90;;;;;;;11.60;57.62;99657.91;671734;29;1170;-92
2024/01/06 01:34:13;;;;;;;12.60;8.68;;;;;;;11.67;57.82;99666.66;675776;29;1326;-93
2024/01/06 01:34:34;;;;;;;11.80;8.80;;;;;;;11.61;57.22;99661.41;677254;29;1135;-93
2024/01/06 01:34:54;;;;;;;11.52;8.68;;;;;;;11.66;57.67;99670.16;677791;29;1322;-91
2024/01/06 01:35:15;;;;;;;12.30;8.80;;;;;;;11.64;57.68;99672.75;672836;29;1179;-92
2024/01/06 01:35:36;;;;;;;11.43;8.43;;;;;;;11.58;57.80;99664.88;672583;29;1182;-92
2024/01/06 01:35:56;;;;;;;13.80;8.90;;;;;;;11.56;57.65;99658.72;675358;29;1213;-91
2024/01/06 01:36:18;;;;;;;13.73;8.67;;;;;;;11.58;57.75;99661.38;678146;29;1096;-92
2024/01/06 01:36:38;;;;;;;15.25;9.10;;;;;;;11.59;57.86;99665.72;674300;29;1200;-92
2024/01/06 01:36:59;;;;;;;14.10;9.17;;;;;;;11.57;57.58;99665.72;673069;29;1098;-92
2024/01/06 01:37:20;;;;;;;14.40;9.65;;;;;;;11.57;57.54;99660.50;670533;29;1359;-92
2024/01/06 01:37:40;;;;;;;13.30;9.70;;;;;;;11.60;57.36;99663.13;674427;29;1104;-93
2024/01/06 01:38:01;;;;;;;11.90;9.07;;;;;;;11.56;57.80;99657.88;678157;29;1531;-92
2024/01/06 01:38:22;;;;;;;13.43;8.98;;;;;;;11.63;57.70;99670.97;678436;29;1123;-93
2024/01/06 01:38:42;;;;;;;14.60;8.83;;;;;;;11.65;57.47;99671.91;676756;29;1153;-92
2024/01/06 01:39:03;;;;;;;17.48;9.07;;;;;;;11.62;57.60;99670.97;677954;29;1199;-92
2024/01/06 01:39:23;;;;;;;19.35;9.30;;;;;;;11.55;57.46;99658.75;677757;29;1142;-93